AirNav   TITAN Aviation Fuels
 
 1439 users online  

12IL Hawker Airport
Kankakee, Illinois, USA

GOING TO KANKAKEE?


FAA INFORMATION EFFECTIVE 01 DECEMBER 2022

Location

FAA Identifier: 12IL
Lat/Long: 41-12-00.1140N 088-01-00.1780W
41-12.001900N 088-01.002967W
41.2000317,-88.0167161
(estimated)
Elevation: 620 ft. / 189 m (estimated)
Variation: 01W (1985)
From city: 9 miles NW of KANKAKEE, IL
Time zone: UTC -6 (UTC -5 during Daylight Saving Time)
Zip code: 60913

Airport Operations

Airport use: Private use. Permission required prior to landing
Activation date: 08/1966
Control tower: no
ARTCC: CHICAGO CENTER
FSS: KANKAKEE FLIGHT SERVICE STATION
Attendance: UNATNDD
Wind indicator: yes
Segmented circle: no

Airport Communications

WX AWOS-3 at IKK (11 nm SE): 128.475 (815-939-4044)
WX AWOS-AV at C56 (19 nm NE): 119.125 (708-534-5256)

Nearby radio navigation aids

VOR radial/distance  VOR name  Freq  Var
EONr246/11.0PEOTONE VORTAC113.2002E
JOTr145/24.8JOLIET VOR/DME112.3002E
CGTr225/27.3CHICAGO HEIGHTS VORTAC114.2002E
RBSr008/37.7ROBERTS VOR/DME116.8002E
PNTr052/39.6PONTIAC VOR/DME109.6003E

 
NDB name  Hdg/Dist  Freq  Var  ID
LUKOW335/12.127200EIK .. -.-

Airport Services

Airframe service: MINOR
Powerplant service: MINOR

Runway Information

Runway E/W

Dimensions: 1300 x 100 ft. / 396 x 30 m
Surface: turf
RUNWAY E  RUNWAY W
Traffic pattern: leftleft
Obstructions: plinetrees

Airport Ownership and Management from official FAA records

Ownership: Privately-owned
Owner: RICHARD V. HAWKER
4778 N. 7000 W. RD.
KANKAKEE, IL 60901
Phone 815-933-4185

Airport Operational Statistics

Aircraft based on the field: 1
Single engine airplanes: 1
    

Additional Remarks

FOR CD CTC CHICAGO ARTCC AT 630-906-8921.

Instrument Procedures

There are no published instrument procedures at 12IL.

Some nearby airports with instrument procedures:

KIKK - Greater Kankakee Airport (11 nm SE)
C56 - Bult Field Airport (19 nm NE)
C09 - Morris Municipal Airport-James R. Washburn Field (23 nm NW)
KLOT - Lewis University Airport (25 nm N)
KIGQ - Lansing Municipal Airport (30 nm NE)
 
Loc | Ops | Rwys | IFR | FBO | Links
Com | Nav | Svcs | Stats | Notes
Area around 12IL (Hawker Airport)
 
Road maps at: MapQuest Bing Google
 
Aerial photo
No photo
 
Sectional chart

 
Airport distance calculator
Flying to Hawker Airport? Find the distance to fly.

From to 12IL

Sunrise and sunset
Times for 07-Dec-2022
 Local
(UTC-6)
 Zulu
(UTC)
Morning civil twilight06:3412:34
Sunrise07:0513:05
Sunset16:2222:22
Evening civil twilight16:5322:53

Current date and time
Zulu (UTC)  07-Dec-2022 14:35:13
Local (UTC-6)  07-Dec-2022 08:35:13
 
METAR
KIKK 
11nm SE 
071415Z AUTO 00000KT 1 1/2SM BR OVC010 04/03 A3023 RMK AO2 T00400032
KJOT 
20nm N 
071415Z AUTO 00000KT 1 3/4SM BR OVC016 04/04 A3023 RMK AO2 T00430035
TAF
KGYY 
37nm NE 
071403Z 0714/0812 32005KT P6SM OVC010 TEMPO 0714/0715 2SM BR OVC007 FM071800 33007KT P6SM BKN015 FM072100 35006KT P6SM BKN025 FM080200 01005KT P6SM SCT010 BKN020
KMDW 
37nm N 
071400Z 0714/0818 32005KT 3SM BR SCT004 OVC010 TEMPO 0714/0715 1SM BR OVC004 FM071500 34005KT P6SM SCT006 OVC010 FM071800 33008KT P6SM BKN015 FM072200 35007KT P6SM BKN025 FM080200 01005KT P6SM SCT010 BKN020
KDPA 
44nm N 
071403Z 0714/0812 VRB03KT 1/2SM FG OVC003 TEMPO 0714/0715 1/4SM FG VV002 FM071500 33004KT 3SM BR OVC004 FM071800 32008KT P6SM BKN010 FM072100 35006KT P6SM BKN025 FM080200 01005KT P6SM SCT010 BKN020
NOTAMs
Click for the latest NOTAMs
NOTAMs are issued by the DoD/FAA and will open in a separate window not controlled by AirNav.

 

 
 

Would you like to see your business listed on this page?

 If your business provides an interesting product or service to pilots, flight crews, aircraft, or users of the Hawker Airport, you should consider listing it here.  To start the listing process, click on the button below
 
Add a business
 

Other Pages about Hawker Airport

Update a link
 
Copyright © AirNav, LLC. All rights reserved. Privacy Policy  Contact